Time;durP1;ratioP1;P1;durP2;ratioP2;P2;SDS_P1;SDS_P2;PMS_P1;PMS_P2;Temp;Humidity;BMP_temperature;BMP_pressure;BME280_temperature;BME280_humidity;BME280_pressure;Samples;Min_cycle;Max_cycle;Signal;HPM_P1;HPM_P2
2022/11/23 00:01:35;;;;;;;2.70;1.47;;;;;;;7.40;84.12;98503.50;5086819;28;20479;-66
2022/11/23 00:04:03;;;;;;;1.80;1.50;;;;;;;7.32;84.05;98500.81;5101793;28;20490;-67
2022/11/23 00:06:30;;;;;;;3.93;1.47;;;;;;;7.48;83.97;98502.66;5099980;28;20511;-68
2022/11/23 00:08:58;;;;;;;2.37;1.13;;;;;;;7.41;84.11;98499.81;5102018;28;20478;-68
2022/11/23 00:11:26;;;;;;;5.10;1.47;;;;;;;7.32;84.78;98504.28;5097479;28;21012;-68
2022/11/23 00:13:53;;;;;;;1.80;1.60;;;;;;;7.35;85.74;98496.00;5081227;28;20481;-67
2022/11/23 00:16:21;;;;;;;2.97;1.53;;;;;;;7.29;86.71;98506.44;5082984;28;20507;-66
2022/11/23 00:18:52;;;;;;;2.77;1.50;;;;;;;7.17;87.32;98495.31;5101820;28;20922;-68
2022/11/23 00:21:19;;;;;;;2.13;1.43;;;;;;;7.24;87.58;98491.00;5099854;28;20558;-67
2022/11/23 00:23:46;;;;;;;2.07;1.47;;;;;;;7.15;87.46;98498.13;5081668;28;20441;-67
2022/11/23 00:26:13;;;;;;;2.97;1.60;;;;;;;7.16;87.06;98490.97;5080386;28;20511;-68
2022/11/23 00:28:41;;;;;;;2.97;1.40;;;;;;;7.34;86.64;98506.78;5099708;28;20436;-68
2022/11/23 00:31:26;;;;;;;2.47;1.50;;;;;;;7.27;87.12;98503.13;5101020;28;20479;-69
2022/11/23 00:33:55;;;;;;;1.87;1.60;;;;;;;7.26;87.91;98502.31;5061085;28;20483;-69
2022/11/23 00:36:23;;;;;;;4.83;1.70;;;;;;;7.28;88.81;98510.13;5061266;28;20476;-70
2022/11/23 00:38:53;;;;;;;7.53;2.00;;;;;;;7.20;89.88;98497.63;5099089;28;21012;-69
2022/11/23 00:41:23;;;;;;;2.63;1.70;;;;;;;7.15;89.52;98500.78;5101294;28;20474;-70
2022/11/23 00:43:49;;;;;;;4.17;1.70;;;;;;;7.09;90.37;98511.22;5081328;28;20531;-70
2022/11/23 00:46:18;;;;;;;2.20;1.50;;;;;;;7.19;90.35;98505.75;5080213;28;20654;-70
2022/11/23 00:48:45;;;;;;;5.60;2.30;;;;;;;7.26;90.21;98506.78;5098819;28;20526;-68
2022/11/23 00:51:15;;;;;;;3.20;1.67;;;;;;;7.23;90.32;98502.63;5101491;28;20494;-70
2022/11/23 00:53:41;;;;;;;2.63;1.70;;;;;;;7.10;90.75;98513.72;5097255;28;20455;-70
2022/11/23 00:56:11;;;;;;;4.30;1.60;;;;;;;7.09;91.32;98514.69;5101350;28;20909;-70
2022/11/23 00:58:38;;;;;;;2.40;1.40;;;;;;;7.16;91.81;98507.75;5084707;28;20448;-70
2022/11/23 01:01:07;;;;;;;3.13;1.67;;;;;;;7.20;91.31;98513.56;5080132;28;20476;-70
2022/11/23 01:03:33;;;;;;;2.47;1.80;;;;;;;7.25;91.20;98508.59;5095159;28;20487;-70
2022/11/23 01:06:05;;;;;;;1.50;1.40;;;;;;;7.19;91.95;98519.03;5100674;28;20479;-70
2022/11/23 01:08:33;;;;;;;6.90;1.73;;;;;;;7.23;91.76;98513.25;5099304;28;20526;-68
2022/11/23 01:11:00;;;;;;;4.10;1.30;;;;;;;7.27;91.49;98513.75;5100988;28;21310;-71
2022/11/23 01:13:27;;;;;;;2.90;1.63;;;;;;;7.25;91.55;98521.06;5099041;28;20515;-70
2022/11/23 01:15:54;;;;;;;2.90;1.40;;;;;;;7.28;91.35;98516.25;5099819;28;20538;-68
2022/11/23 01:18:21;;;;;;;4.30;1.50;;;;;;;7.25;91.52;98510.44;5087071;28;20513;-70
2022/11/23 01:20:47;;;;;;;8.63;1.80;;;;;;;7.23;91.69;98510.59;5081932;28;20500;-70
2022/11/23 01:23:14;;;;;;;2.67;1.43;;;;;;;7.28;91.96;98516.25;5085925;28;20484;-70
2022/11/23 01:25:42;;;;;;;3.80;1.40;;;;;;;7.40;91.96;98518.63;5084284;28;20478;-70
2022/11/23 01:28:08;;;;;;;3.30;1.70;;;;;;;7.30;91.85;98516.09;5095634;28;20518;-70
2022/11/23 01:30:35;;;;;;;3.17;1.43;;;;;;;7.32;92.16;98517.59;5104476;28;20534;-71
2022/11/23 01:33:02;;;;;;;3.53;1.57;;;;;;;7.28;92.40;98515.44;5095616;28;20460;-68
2022/11/23 01:35:29;;;;;;;3.33;1.33;;;;;;;7.31;92.86;98515.13;5084300;28;20496;-71
2022/11/23 01:37:56;;;;;;;4.80;1.30;;;;;;;7.41;93.01;98521.09;5085282;28;20464;-72
2022/11/23 01:40:23;;;;;;;4.10;1.90;;;;;;;7.40;92.77;98527.41;5088884;28;20503;-70
2022/11/23 01:42:54;;;;;;;6.30;1.97;;;;;;;7.32;92.59;98522.06;5104531;28;20502;-70
2022/11/23 01:45:39;;;;;;;1.93;1.60;;;;;;;7.32;92.21;98516.75;5089515;28;20551;-71
2022/11/23 01:48:10;;;;;;;4.30;1.97;;;;;;;7.48;91.90;98526.59;5084188;28;20468;-69
2022/11/23 01:50:37;;;;;;;3.53;1.50;;;;;;;7.48;92.04;98523.94;5084954;28;20538;-69
2022/11/23 01:53:04;;;;;;;4.20;1.70;;;;;;;7.44;91.85;98527.94;5084043;28;20458;-67
2022/11/23 01:55:31;;;;;;;2.73;1.87;;;;;;;7.42;91.72;98529.91;5097570;28;20551;-69
2022/11/23 01:57:59;;;;;;;3.63;2.20;;;;;;;7.38;91.83;98526.75;5104886;28;20499;-71
2022/11/23 02:00:26;;;;;;;6.20;1.60;;;;;;;7.43;91.52;98520.94;5090592;28;21068;-71
2022/11/23 02:02:56;;;;;;;4.40;1.53;;;;;;;7.39;91.09;98528.41;5083709;28;20519;-70
2022/11/23 02:05:25;;;;;;;4.03;2.57;;;;;;;7.45;91.10;98530.44;5095157;28;20471;-71
2022/11/23 02:07:52;;;;;;;4.23;1.80;;;;;;;7.51;90.79;98529.75;5102607;28;20436;-70
2022/11/23 02:10:18;;;;;;;1.33;1.23;;;;;;;7.57;90.44;98530.94;5103223;28;20520;-70
2022/11/23 02:12:45;;;;;;;3.80;1.60;;;;;;;7.52;90.03;98534.09;5102328;28;20447;-71
2022/11/23 02:15:13;;;;;;;4.13;1.50;;;;;;;7.60;90.10;98530.59;5089713;28;20475;-71
2022/11/23 02:17:40;;;;;;;3.07;1.50;;;;;;;7.47;90.41;98531.09;5062869;28;20578;-70
2022/11/23 02:20:09;;;;;;;3.30;1.63;;;;;;;7.57;90.00;98533.63;5062748;28;20908;-66
2022/11/23 02:22:44;;;;;;;5.17;1.40;;;;;;;7.61;89.96;98526.13;5084779;28;20448;-71
2022/11/23 02:25:18;;;;;;;3.60;1.60;;;;;;;7.57;89.70;98530.94;5083162;28;20451;-70
2022/11/23 02:27:48;;;;;;;3.37;1.70;;;;;;;7.67;89.22;98530.78;5063211;28;21111;-70
2022/11/23 02:30:14;;;;;;;1.77;1.20;;;;;;;7.62;89.57;98533.97;5062863;28;20488;-70
2022/11/23 02:32:41;;;;;;;2.47;1.50;;;;;;;7.62;89.56;98538.41;5101595;28;21051;-70
2022/11/23 02:35:10;;;;;;;4.53;1.50;;;;;;;7.70;89.46;98539.25;5103529;28;20478;-68
2022/11/23 02:37:37;;;;;;;4.90;1.80;;;;;;;7.66;89.58;98535.28;5084522;28;20479;-70
2022/11/23 02:40:11;;;;;;;4.80;2.37;;;;;;;7.65;89.39;98536.25;5102639;28;20439;-70
2022/11/23 02:42:38;;;;;;;4.43;1.60;;;;;;;7.71;89.56;98538.28;5103210;28;20478;-71
2022/11/23 02:45:11;;;;;;;3.70;1.70;;;;;;;7.70;89.30;98541.09;5084194;28;20480;-71
2022/11/23 02:47:37;;;;;;;3.33;1.50;;;;;;;7.71;89.10;98535.63;5090689;28;20487;-69
2022/11/23 02:50:04;;;;;;;4.13;1.87;;;;;;;7.76;88.96;98537.78;5104196;28;20428;-71
2022/11/23 02:52:31;;;;;;;2.10;1.60;;;;;;;7.70;89.19;98541.91;5088131;28;20488;-70
2022/11/23 02:54:58;;;;;;;2.33;1.30;;;;;;;7.84;88.53;98542.28;5083431;28;20491;-68
2022/11/23 02:57:24;;;;;;;3.20;1.93;;;;;;;7.67;89.43;98544.09;5095810;28;20567;-68
2022/11/23 02:59:51;;;;;;;5.47;2.00;;;;;;;7.72;88.80;98547.09;5099555;28;20471;-69
2022/11/23 03:02:19;;;;;;;3.10;1.60;;;;;;;7.80;88.66;98538.28;5082475;28;20500;-71
2022/11/23 03:04:45;;;;;;;2.83;2.07;;;;;;;7.74;88.71;98542.41;5084274;28;20461;-69
2022/11/23 03:07:12;;;;;;;4.00;1.60;;;;;;;7.79;88.64;98548.09;5083129;28;20540;-69
2022/11/23 03:09:38;;;;;;;4.73;1.80;;;;;;;7.82;88.66;98549.59;5083559;28;20980;-70
2022/11/23 03:12:05;;;;;;;3.33;1.37;;;;;;;7.78;89.80;98543.78;5102931;28;20506;-71
2022/11/23 03:14:32;;;;;;;4.07;1.50;;;;;;;7.71;91.17;98548.09;5100276;28;20485;-72
2022/11/23 03:16:59;;;;;;;3.03;1.80;;;;;;;7.68;91.93;98553.75;5100421;28;20608;-72
2022/11/23 03:19:27;;;;;;;2.70;1.40;;;;;;;7.61;92.50;98550.06;5100542;28;20439;-70
2022/11/23 03:21:53;;;;;;;6.27;2.10;;;;;;;7.59;92.64;98558.22;5081338;28;20511;-69
2022/11/23 03:24:20;;;;;;;8.13;1.90;;;;;;;7.64;92.43;98555.06;5094983;28;20482;-70
2022/11/23 03:26:46;;;;;;;3.93;1.40;;;;;;;7.61;92.30;98552.72;5102557;28;20507;-68
2022/11/23 03:29:13;;;;;;;3.20;1.60;;;;;;;7.68;92.20;98556.41;5091101;28;21033;-70
2022/11/23 03:31:40;;;;;;;3.30;1.80;;;;;;;7.66;91.64;98558.41;5084475;28;20562;-68
2022/11/23 03:34:06;;;;;;;5.33;1.93;;;;;;;7.67;91.72;98560.91;5102155;28;20515;-71
2022/11/23 03:36:34;;;;;;;6.93;1.47;;;;;;;7.66;91.22;98563.72;5099659;28;20532;-69
2022/11/23 03:39:04;;;;;;;2.60;1.40;;;;;;;7.70;91.02;98562.38;5102582;28;20439;-70
2022/11/23 03:41:31;;;;;;;4.30;1.70;;;;;;;7.72;90.96;98555.91;5099634;28;20477;-70
2022/11/23 03:43:57;;;;;;;4.93;1.57;;;;;;;7.67;91.16;98566.22;5081428;28;20464;-69
2022/11/23 03:46:24;;;;;;;4.87;1.40;;;;;;;7.78;91.36;98565.06;5082585;28;20571;-70
2022/11/23 03:48:52;;;;;;;9.43;2.10;;;;;;;7.66;92.67;98563.72;5082158;28;20428;-70
2022/11/23 03:51:19;;;;;;;3.20;1.60;;;;;;;7.53;93.38;98567.69;5082379;28;20468;-70
2022/11/23 03:53:47;;;;;;;2.50;1.50;;;;;;;7.65;94.13;98562.03;5102588;28;20505;-70
2022/11/23 03:56:13;;;;;;;6.23;1.53;;;;;;;7.61;94.73;98566.84;5102010;28;20497;-74
2022/11/23 03:58:40;;;;;;;2.97;1.33;;;;;;;7.57;95.01;98565.53;5101952;28;20439;-69
2022/11/23 04:01:07;;;;;;;3.60;1.73;;;;;;;7.55;95.34;98570.16;5101536;28;20539;-72
2022/11/23 04:03:34;;;;;;;2.83;1.30;;;;;;;7.52;95.95;98578.47;5083218;28;20913;-73
2022/11/23 04:06:00;;;;;;;5.27;1.73;;;;;;;7.56;96.12;98569.16;5081541;28;20568;-73
2022/11/23 04:08:27;;;;;;;2.13;1.33;;;;;;;7.54;96.51;98574.66;5098887;28;20984;-70
2022/11/23 04:10:57;;;;;;;4.80;2.17;;;;;;;7.47;96.83;98557.69;5090405;28;20476;-69
2022/11/23 04:13:24;;;;;;;6.37;1.50;;;;;;;7.50;97.13;98573.31;5081712;28;20539;-70
2022/11/23 04:15:50;;;;;;;4.20;1.50;;;;;;;7.44;97.25;98565.16;5096226;28;20585;-74
2022/11/23 04:18:17;;;;;;;8.20;2.70;;;;;;;7.48;97.09;98564.69;5101976;28;20457;-74
2022/11/23 04:20:44;;;;;;;2.60;1.90;;;;;;;7.51;97.26;98577.63;5099834;28;20523;-73
2022/11/23 04:23:10;;;;;;;4.90;1.90;;;;;;;7.46;97.10;98569.28;5101812;28;20486;-70
2022/11/23 04:25:37;;;;;;;8.40;2.47;;;;;;;7.42;97.25;98575.13;5088192;28;21091;-69
2022/11/23 04:28:05;;;;;;;2.87;1.53;;;;;;;7.45;96.79;98567.66;5082037;28;20500;-71
2022/11/23 04:30:31;;;;;;;4.93;2.43;;;;;;;7.42;96.94;98565.31;5080577;28;20909;-69
2022/11/23 04:32:58;;;;;;;1.90;1.40;;;;;;;7.52;96.41;98565.19;5081581;28;20473;-69
2022/11/23 04:35:24;;;;;;;2.57;1.50;;;;;;;7.46;96.28;98565.81;5101331;28;20534;-70
2022/11/23 04:37:51;;;;;;;5.37;2.20;;;;;;;7.52;96.60;98563.34;5101660;28;20451;-73
2022/11/23 04:40:18;;;;;;;4.63;3.83;;;;;;;7.45;96.32;98572.16;5060838;28;20430;-73
2022/11/23 04:42:44;;;;;;;3.33;1.83;;;;;;;7.45;95.97;98572.97;5077992;28;20498;-70
2022/11/23 04:45:12;;;;;;;6.10;1.90;;;;;;;7.38;96.38;98566.63;5100781;28;20489;-71
2022/11/23 04:47:39;;;;;;;5.27;2.40;;;;;;;7.42;96.08;98569.81;5092843;28;20548;-73
2022/11/23 04:50:06;;;;;;;6.73;1.93;;;;;;;7.30;96.58;98577.22;5081603;28;20428;-71
2022/11/23 04:52:33;;;;;;;3.07;2.00;;;;;;;7.24;96.87;98573.41;5081616;28;20473;-73
2022/11/23 04:54:59;;;;;;;6.50;1.93;;;;;;;7.21;96.71;98575.56;5080881;28;20452;-67
2022/11/23 04:57:26;;;;;;;3.10;1.67;;;;;;;7.28;96.51;98582.72;5084443;28;20491;-70
2022/11/23 04:59:52;;;;;;;4.60;2.07;;;;;;;7.28;96.33;98577.41;5100643;28;21067;-69
2022/11/23 05:02:20;;;;;;;3.30;2.00;;;;;;;7.25;96.24;98582.19;5079892;28;20503;-65
2022/11/23 05:04:47;;;;;;;5.80;1.90;;;;;;;7.17;96.37;98583.00;5082973;28;20511;-70
2022/11/23 05:07:14;;;;;;;5.07;2.00;;;;;;;7.19;96.79;98575.72;5097560;28;20472;-68
2022/11/23 05:09:40;;;;;;;4.93;2.17;;;;;;;7.21;96.43;98583.53;5099123;28;20427;-69
2022/11/23 05:12:07;;;;;;;2.77;1.57;;;;;;;7.19;96.47;98580.16;5080049;28;21021;-70
2022/11/23 05:14:34;;;;;;;2.80;1.60;;;;;;;7.27;96.10;98585.53;5085731;28;20486;-69
2022/11/23 05:17:00;;;;;;;5.60;2.03;;;;;;;7.28;95.94;98585.38;5099714;28;20570;-70
2022/11/23 05:19:28;;;;;;;7.90;2.20;;;;;;;7.35;95.43;98580.25;5100594;28;20471;-70
2022/11/23 05:21:55;;;;;;;3.33;1.80;;;;;;;7.27;95.43;98578.38;5092446;28;20484;-69
2022/11/23 05:24:21;;;;;;;3.53;2.53;;;;;;;7.42;94.79;98577.78;5080822;28;20452;-70
2022/11/23 05:26:48;;;;;;;3.83;1.57;;;;;;;7.40;94.84;98577.13;5071893;28;20615;-69
2022/11/23 05:29:15;;;;;;;4.20;1.70;;;;;;;7.37;94.59;98582.75;5081982;28;20444;-70
2022/11/23 05:31:41;;;;;;;2.73;2.30;;;;;;;7.42;94.46;98578.59;5077420;28;20499;-70
2022/11/23 05:34:08;;;;;;;2.87;1.90;;;;;;;7.37;95.17;98577.44;5069945;28;20472;-69
2022/11/23 05:36:36;;;;;;;5.63;1.90;;;;;;;7.41;95.03;98586.75;5067274;28;20512;-62
2022/11/23 05:39:03;;;;;;;4.70;2.23;;;;;;;7.39;94.93;98589.56;5065625;28;20505;-60
2022/11/23 05:41:29;;;;;;;5.70;1.97;;;;;;;7.35;95.13;98583.72;5065197;28;20559;-61
2022/11/23 05:43:56;;;;;;;5.60;2.00;;;;;;;7.42;95.02;98596.38;5080033;28;20476;-61
2022/11/23 05:46:22;;;;;;;7.13;1.77;;;;;;;7.44;94.79;98602.38;5078115;28;20517;-61
2022/11/23 05:48:49;;;;;;;2.70;1.60;;;;;;;7.50;94.65;98601.75;5079082;28;20536;-61
2022/11/23 05:51:15;;;;;;;5.23;2.53;;;;;;;7.61;94.30;98596.09;5083177;28;20567;-61
2022/11/23 05:53:43;;;;;;;3.23;2.00;;;;;;;7.61;94.22;98603.25;5079295;28;20529;-61
2022/11/23 05:56:10;;;;;;;5.40;2.13;;;;;;;7.70;94.10;98604.94;5077460;28;20501;-61
2022/11/23 05:58:37;;;;;;;2.70;2.17;;;;;;;7.72;94.21;98608.25;5060513;28;20555;-61
2022/11/23 06:01:03;;;;;;;3.40;1.70;;;;;;;7.63;94.09;98594.13;5077929;28;20563;-60
2022/11/23 06:03:30;;;;;;;4.40;1.90;;;;;;;7.70;94.09;98607.59;5071133;28;20480;-61
2022/11/23 06:05:56;;;;;;;5.50;2.03;;;;;;;7.66;94.24;98604.44;5066899;28;21099;-61
2022/11/23 06:08:23;;;;;;;4.33;2.70;;;;;;;7.61;95.15;98619.22;5084881;28;21012;-61
2022/11/23 06:10:51;;;;;;;4.10;1.67;;;;;;;7.52;95.83;98608.56;5082690;28;20562;-61
2022/11/23 06:13:18;;;;;;;7.83;2.50;;;;;;;7.54;97.07;98619.03;5082818;28;20457;-61
2022/11/23 06:15:45;;;;;;;6.87;2.37;;;;;;;7.50;97.86;98621.19;5093539;28;20471;-61
2022/11/23 06:18:11;;;;;;;3.60;1.80;;;;;;;7.48;98.77;98615.19;5072802;28;20476;-61
2022/11/23 06:20:38;;;;;;;6.97;1.77;;;;;;;7.45;99.65;98620.81;5076577;28;20844;-61
2022/11/23 06:23:04;;;;;;;3.00;1.80;;;;;;;7.46;100.00;98619.81;5100867;28;20474;-61
2022/11/23 06:25:31;;;;;;;6.93;2.93;;;;;;;7.48;100.00;98617.84;5062047;28;20568;-61
2022/11/23 06:28:00;;;;;;;7.70;1.70;;;;;;;7.57;100.00;98623.19;5068612;28;20552;-61
2022/11/23 06:30:28;;;;;;;5.27;1.63;;;;;;;7.63;100.00;98619.88;5086025;28;20495;-59
2022/11/23 06:32:55;;;;;;;8.27;2.40;;;;;;;7.66;99.99;98630.22;5088804;28;20484;-60
2022/11/23 06:35:21;;;;;;;9.20;2.47;;;;;;;7.70;99.80;98628.88;5084261;28;20484;-60
2022/11/23 06:37:48;;;;;;;6.57;3.67;;;;;;;7.56;100.00;98625.00;5094887;28;20558;-60
2022/11/23 06:40:15;;;;;;;6.80;3.17;;;;;;;7.54;100.00;98627.00;5089731;28;20449;-60
2022/11/23 06:42:42;;;;;;;8.30;2.80;;;;;;;7.52;100.00;98635.16;5086059;28;20480;-59
2022/11/23 06:45:11;;;;;;;6.90;2.90;;;;;;;7.50;100.00;98631.00;5094730;28;20448;-60
2022/11/23 06:47:38;;;;;;;5.73;2.57;;;;;;;7.42;100.00;98626.47;5080562;28;20557;-60
2022/11/23 06:50:05;;;;;;;2.53;1.80;;;;;;;7.26;100.00;98637.03;5081148;28;20478;-75
2022/11/23 06:52:32;;;;;;;6.87;3.00;;;;;;;7.35;100.00;98631.59;5062336;28;20508;-74
2022/11/23 06:54:58;;;;;;;6.40;3.00;;;;;;;7.34;100.00;98629.94;5062575;28;20454;-71
2022/11/23 06:57:25;;;;;;;5.13;2.77;;;;;;;7.32;100.00;98633.72;5062630;28;20484;-76
2022/11/23 06:59:52;;;;;;;9.80;3.17;;;;;;;7.31;100.00;98634.75;5062540;28;20462;-76
2022/11/23 07:02:20;;;;;;;4.90;2.50;;;;;;;7.32;100.00;98644.38;5071981;28;20531;-73
2022/11/23 07:04:46;;;;;;;7.83;3.30;;;;;;;7.30;100.00;98646.34;5072268;28;20448;-72
2022/11/23 07:07:13;;;;;;;5.47;3.10;;;;;;;7.29;100.00;98645.53;5082426;28;20483;-73
2022/11/23 07:09:40;;;;;;;4.97;3.77;;;;;;;7.29;100.00;98642.00;5082106;28;20447;-73
2022/11/23 07:12:07;;;;;;;5.23;3.20;;;;;;;7.40;100.00;98635.59;5081700;28;20544;-71
2022/11/23 07:14:33;;;;;;;4.43;3.90;;;;;;;7.35;100.00;98638.72;5076300;28;20524;-63
2022/11/23 07:17:00;;;;;;;3.90;3.40;;;;;;;7.31;100.00;98645.38;5081379;28;20570;-71
2022/11/23 07:19:28;;;;;;;5.53;3.10;;;;;;;7.44;100.00;98642.25;5080565;28;20508;-73
2022/11/23 07:21:55;;;;;;;6.20;3.50;;;;;;;7.47;99.25;98636.63;5081643;28;20504;-73
2022/11/23 07:24:22;;;;;;;5.23;3.13;;;;;;;7.47;99.06;98640.09;5081235;28;20472;-68
2022/11/23 07:26:48;;;;;;;6.17;2.97;;;;;;;7.57;97.74;98644.44;5080681;28;21178;-72
2022/11/23 07:29:15;;;;;;;7.40;2.97;;;;;;;7.53;97.18;98646.59;5091792;28;20475;-72
2022/11/23 07:31:42;;;;;;;11.33;5.07;;;;;;;7.60;97.47;98639.66;5080204;28;20504;-72
2022/11/23 07:34:09;;;;;;;7.70;4.03;;;;;;;7.63;97.61;98646.47;5083766;28;20531;-73
2022/11/23 07:36:38;;;;;;;10.83;4.47;;;;;;;7.61;97.04;98646.63;5080613;28;20507;-71
2022/11/23 07:39:04;;;;;;;3.80;3.40;;;;;;;7.71;96.76;98651.84;5083917;28;20482;-70
2022/11/23 07:41:31;;;;;;;4.40;3.23;;;;;;;7.74;96.57;98648.81;5094834;28;20522;-71
2022/11/23 07:43:59;;;;;;;5.30;2.80;;;;;;;7.59;96.10;98656.63;5081574;28;20482;-72
2022/11/23 07:46:25;;;;;;;5.23;3.00;;;;;;;7.78;95.81;98660.84;5081124;28;20464;-70
2022/11/23 07:48:53;;;;;;;4.73;2.90;;;;;;;7.70;95.65;98669.59;5080880;28;20562;-72
2022/11/23 07:51:19;;;;;;;5.20;3.10;;;;;;;7.99;94.79;98668.38;5086405;28;20491;-72
2022/11/23 07:53:47;;;;;;;5.80;2.93;;;;;;;7.85;94.78;98669.81;5080347;28;20957;-72
2022/11/23 07:56:14;;;;;;;7.63;3.07;;;;;;;8.03;93.88;98669.69;5085548;28;20573;-71
2022/11/23 07:58:41;;;;;;;7.70;3.27;;;;;;;7.95;93.63;98666.19;5100633;28;20458;-71
2022/11/23 08:01:07;;;;;;;4.53;2.83;;;;;;;7.87;94.16;98667.84;5089613;28;20493;-72
2022/11/23 08:03:34;;;;;;;5.37;2.93;;;;;;;7.91;94.32;98673.66;5080564;28;20452;-72
2022/11/23 08:06:01;;;;;;;3.97;2.87;;;;;;;7.84;94.25;98672.66;5080707;28;21000;-72
2022/11/23 08:08:27;;;;;;;5.27;2.60;;;;;;;7.89;93.21;98673.00;5080972;28;20511;-71
2022/11/23 08:10:55;;;;;;;6.67;2.80;;;;;;;8.01;93.63;98679.69;5087848;28;20470;-71
2022/11/23 08:13:22;;;;;;;6.43;2.80;;;;;;;7.85;94.07;98671.66;5093722;28;20480;-70
2022/11/23 08:15:49;;;;;;;6.13;2.87;;;;;;;8.00;93.34;98679.84;5080221;28;20927;-72
2022/11/23 08:18:16;;;;;;;2.80;2.40;;;;;;;7.99;93.00;98679.00;5090514;28;21241;-75
2022/11/23 08:20:42;;;;;;;4.20;3.00;;;;;;;8.00;92.68;98679.84;5097452;28;21222;-71
2022/11/23 08:23:09;;;;;;;4.63;3.47;;;;;;;8.05;92.48;98674.84;5090273;28;20987;-73
2022/11/23 08:25:36;;;;;;;4.00;3.40;;;;;;;8.24;91.97;98681.72;5081145;28;20476;-73
2022/11/23 08:28:04;;;;;;;5.23;3.37;;;;;;;8.42;90.84;98682.44;5081217;28;20469;-71
2022/11/23 08:30:33;;;;;;;6.47;3.83;;;;;;;8.56;89.97;98674.78;5098691;28;20543;-69
2022/11/23 08:32:59;;;;;;;6.60;3.80;;;;;;;8.82;88.70;98682.63;5094789;28;20455;-71
2022/11/23 08:35:26;;;;;;;5.80;3.40;;;;;;;9.31;87.54;98676.34;5098071;28;20490;-71
2022/11/23 08:37:53;;;;;;;3.07;2.60;;;;;;;10.88;79.75;98672.59;5097145;28;20526;-71
2022/11/23 08:40:19;;;;;;;6.50;3.30;;;;;;;12.84;72.07;98682.78;5094315;28;20448;-68
2022/11/23 08:42:47;;;;;;;3.27;2.00;;;;;;;12.92;66.57;98685.34;5081503;28;20532;-70
2022/11/23 08:45:15;;;;;;;3.23;2.50;;;;;;;11.73;70.04;98693.75;5079551;28;20491;-70
2022/11/23 08:47:41;;;;;;;4.20;2.20;;;;;;;10.97;73.11;98689.41;5080652;28;20507;-71
2022/11/23 08:50:09;;;;;;;9.30;1.90;;;;;;;10.19;77.92;98693.97;5085924;28;20447;-70
2022/11/23 08:52:36;;;;;;;5.30;3.07;;;;;;;9.85;79.93;98691.66;5074984;28;20546;-63
2022/11/23 08:55:02;;;;;;;3.27;2.60;;;;;;;9.58;81.35;98699.94;5094979;28;20490;-63
2022/11/23 08:57:29;;;;;;;6.73;2.30;;;;;;;9.23;82.82;98698.53;5071142;28;20565;-71
2022/11/23 08:59:56;;;;;;;4.33;2.03;;;;;;;8.99;83.82;98700.25;5091029;28;20464;-70
2022/11/23 09:02:24;;;;;;;5.37;2.70;;;;;;;8.95;85.87;98701.56;5078981;28;20475;-71
2022/11/23 09:04:50;;;;;;;2.90;1.93;;;;;;;8.86;86.67;98706.06;5081291;28;20444;-71
2022/11/23 09:07:17;;;;;;;4.60;2.00;;;;;;;8.74;88.00;98703.94;5094858;28;20571;-72
2022/11/23 09:09:44;;;;;;;3.97;2.10;;;;;;;8.93;88.43;98714.25;5084522;28;20476;-73
2022/11/23 09:12:10;;;;;;;5.00;2.03;;;;;;;9.00;88.40;98707.22;5086210;28;20485;-71
2022/11/23 09:14:37;;;;;;;4.30;2.40;;;;;;;9.14;87.28;98705.72;5098095;28;20475;-71
2022/11/23 09:17:04;;;;;;;5.10;2.30;;;;;;;9.31;85.43;98703.84;5094601;28;21007;-73
2022/11/23 09:19:32;;;;;;;8.07;2.90;;;;;;;9.37;84.95;98697.00;5079697;28;20460;-72
2022/11/23 09:21:59;;;;;;;6.63;3.00;;;;;;;9.59;83.44;98703.44;5078628;28;20949;-72
2022/11/23 09:24:26;;;;;;;4.53;2.77;;;;;;;9.42;83.45;98705.31;5080185;28;20460;-73
2022/11/23 09:26:53;;;;;;;7.00;3.27;;;;;;;9.72;83.34;98706.38;5065227;28;20543;-62
2022/11/23 09:29:20;;;;;;;5.23;2.30;;;;;;;10.52;79.97;98707.16;5079932;28;20523;-62
2022/11/23 09:31:47;;;;;;;6.27;2.90;;;;;;;10.61;77.65;98702.56;5087290;28;21055;-62
2022/11/23 09:34:13;;;;;;;3.47;2.40;;;;;;;10.16;79.44;98711.16;5087504;28;20484;-72
2022/11/23 09:36:41;;;;;;;5.73;3.03;;;;;;;9.85;79.70;98705.81;5081492;28;20484;-70
2022/11/23 09:39:08;;;;;;;6.03;2.50;;;;;;;9.70;80.83;98715.56;5079952;28;20475;-74
2022/11/23 09:42:05;;;;;;;8.70;2.43;;;;;;;9.65;82.63;98710.72;5080438;28;20574;-71
2022/11/23 09:44:40;;;;;;;11.20;2.77;;;;;;;9.76;81.51;98713.03;5082811;28;20471;-71
2022/11/23 09:47:21;;;;;;;6.30;1.93;;;;;;;9.85;79.42;98721.84;5096256;28;20499;-71
2022/11/23 09:49:54;;;;;;;4.23;1.60;;;;;;;10.40;77.77;98713.88;5104531;28;20436;-71
2022/11/23 09:52:23;;;;;;;4.57;1.60;;;;;;;10.84;75.95;98722.06;5089253;28;20883;-71
2022/11/23 09:54:52;;;;;;;4.00;1.67;;;;;;;10.60;76.01;98722.28;5097210;28;20454;-72
2022/11/23 09:57:22;;;;;;;6.03;1.63;;;;;;;10.36;76.51;98727.63;5083561;28;20513;-72
2022/11/23 09:59:52;;;;;;;3.20;1.60;;;;;;;10.42;76.54;98719.91;5083191;28;20444;-71
2022/11/23 10:02:21;;;;;;;4.00;2.10;;;;;;;10.41;76.33;98721.72;5083474;28;20547;-70
2022/11/23 10:04:49;;;;;;;3.70;2.00;;;;;;;10.85;75.67;98714.88;5088244;28;20440;-72
2022/11/23 10:07:29;;;;;;;3.57;1.70;;;;;;;13.50;66.16;98722.72;5102970;28;20514;-70
2022/11/23 10:10:03;;;;;;;2.90;1.83;;;;;;;14.36;60.32;98716.09;5088290;28;21069;-70
2022/11/23 10:12:37;;;;;;;3.03;1.50;;;;;;;14.64;57.80;98713.28;5082815;28;20472;-71
2022/11/23 10:15:12;;;;;;;1.77;1.33;;;;;;;13.51;60.84;98711.78;5088024;28;20470;-71
2022/11/23 10:17:55;;;;;;;3.80;1.27;;;;;;;14.49;57.22;98716.94;5082286;28;20458;-71
2022/11/23 10:20:44;;;;;;;2.27;1.40;;;;;;;14.31;57.39;98704.06;5081326;28;20421;-75
2022/11/23 10:23:18;;;;;;;3.97;1.20;;;;;;;13.20;60.33;98720.22;5093516;28;20491;-71
2022/11/23 10:25:47;;;;;;;3.93;1.50;;;;;;;14.23;56.62;98709.63;5098527;28;20503;-70
2022/11/23 10:28:16;;;;;;;4.57;1.27;;;;;;;13.12;59.71;98704.25;5093708;28;20561;-72
2022/11/23 10:30:43;;;;;;;3.50;1.57;;;;;;;12.69;60.85;98704.31;5089620;28;20921;-72
2022/11/23 10:33:19;;;;;;;4.60;2.20;;;;;;;12.08;63.51;98702.03;5083321;28;20763;-71
2022/11/23 10:35:46;;;;;;;5.53;2.23;;;;;;;11.91;65.12;98704.94;5082107;28;20467;-71
2022/11/23 10:38:15;;;;;;;3.67;1.63;;;;;;;11.73;66.69;98704.47;5093194;28;20451;-70
2022/11/23 10:40:45;;;;;;;7.07;2.20;;;;;;;12.47;63.27;98692.78;5102831;28;20478;-71
2022/11/23 10:43:15;;;;;;;4.63;1.53;;;;;;;12.71;63.26;98702.28;5090527;28;20460;-71
2022/11/23 10:45:42;;;;;;;6.13;1.40;;;;;;;12.12;63.29;98692.63;5102848;28;20942;-71
2022/11/23 10:48:09;;;;;;;2.77;1.30;;;;;;;13.47;58.74;98691.75;5099990;28;21082;-71
2022/11/23 10:50:39;;;;;;;6.43;1.83;;;;;;;13.48;57.94;98684.50;5102363;28;20468;-71
2022/11/23 10:53:20;;;;;;;9.20;2.07;;;;;;;13.40;57.88;98692.72;5100620;28;20475;-72
2022/11/23 10:55:48;;;;;;;1.63;1.10;;;;;;;13.00;58.19;98690.53;5094637;28;20483;-72
2022/11/23 10:58:25;;;;;;;5.27;1.50;;;;;;;13.02;59.90;98685.84;5088750;28;20526;-70
2022/11/23 11:01:00;;;;;;;2.37;1.10;;;;;;;13.90;57.36;98678.06;5099808;28;20495;-70
2022/11/23 11:03:30;;;;;;;3.67;1.73;;;;;;;14.82;53.34;98669.63;5099597;28;20687;-72
2022/11/23 11:05:57;;;;;;;5.43;1.50;;;;;;;15.20;51.35;98677.84;5101640;28;20491;-73
2022/11/23 11:08:29;;;;;;;4.87;2.03;;;;;;;16.07;48.20;98666.03;5100642;28;20547;-72
2022/11/23 11:11:00;;;;;;;5.23;1.73;;;;;;;15.90;48.61;98663.84;5083450;28;20541;-65
2022/11/23 11:13:30;;;;;;;5.87;2.00;;;;;;;14.45;50.55;98672.66;5087241;28;20457;-64
2022/11/23 11:15:58;;;;;;;7.70;1.80;;;;;;;14.24;52.12;98673.66;5070864;28;20513;-65
2022/11/23 11:18:28;;;;;;;4.03;1.53;;;;;;;14.85;50.64;98659.25;5089992;28;20513;-64
2022/11/23 11:20:59;;;;;;;5.87;1.30;;;;;;;15.78;47.26;98669.06;5092018;28;20484;-65
2022/11/23 11:23:29;;;;;;;7.40;1.87;;;;;;;15.04;48.08;98665.66;5081722;28;20490;-64
2022/11/23 11:26:05;;;;;;;8.63;1.60;;;;;;;15.20;46.94;98668.97;5098759;28;20496;-64
2022/11/23 11:28:35;;;;;;;2.70;1.10;;;;;;;16.24;45.50;98669.06;5089806;28;20513;-64
2022/11/23 11:31:15;;;;;;;5.40;1.87;;;;;;;15.96;45.97;98660.25;5098241;28;20524;-65
2022/11/23 11:33:46;;;;;;;5.20;2.00;;;;;;;15.88;45.98;98663.19;5081885;28;20501;-64
2022/11/23 11:36:14;;;;;;;3.20;1.20;;;;;;;16.81;43.63;98661.81;5086578;28;20553;-65
2022/11/23 11:38:42;;;;;;;9.30;1.40;;;;;;;14.85;47.41;98671.91;5091432;28;20465;-64
2022/11/23 11:41:11;;;;;;;4.60;1.13;;;;;;;14.64;48.89;98659.47;5095863;28;20515;-64
2022/11/23 11:43:41;;;;;;;3.83;1.63;;;;;;;15.12;47.62;98661.09;5094478;28;20457;-65